sensor_id;sensor_type;location;lat;lon;timestamp;temperature;humidity
6114;DHT22;3087;48.392;10.836;2022-09-09T00:00:28;18.10;99.90
6114;DHT22;3087;48.392;10.836;2022-09-09T00:05:46;18.00;99.90
6114;DHT22;3087;48.392;10.836;2022-09-09T00:08:22;17.90;99.90
6114;DHT22;3087;48.392;10.836;2022-09-09T00:10:58;17.60;99.90
6114;DHT22;3087;48.392;10.836;2022-09-09T00:13:46;17.30;99.90
6114;DHT22;3087;48.392;10.836;2022-09-09T00:16:23;17.00;99.90
6114;DHT22;3087;48.392;10.836;2022-09-09T00:18:52;16.80;99.90
6114;DHT22;3087;48.392;10.836;2022-09-09T00:21:26;16.70;99.90
6114;DHT22;3087;48.392;10.836;2022-09-09T00:23:56;16.60;99.90
6114;DHT22;3087;48.392;10.836;2022-09-09T00:26:38;16.70;99.90
6114;DHT22;3087;48.392;10.836;2022-09-09T00:29:20;16.70;99.90
6114;DHT22;3087;48.392;10.836;2022-09-09T00:31:47;16.80;99.90
6114;DHT22;3087;48.392;10.836;2022-09-09T00:34:21;16.90;99.90
6114;DHT22;3087;48.392;10.836;2022-09-09T00:36:52;17.00;99.90
6114;DHT22;3087;48.392;10.836;2022-09-09T00:39:42;17.20;99.90
6114;DHT22;3087;48.392;10.836;2022-09-09T00:42:26;17.20;99.90
6114;DHT22;3087;48.392;10.836;2022-09-09T00:45:19;17.30;99.90
6114;DHT22;3087;48.392;10.836;2022-09-09T00:47:53;17.30;99.90
6114;DHT22;3087;48.392;10.836;2022-09-09T00:53:51;16.90;99.90
6114;DHT22;3087;48.392;10.836;2022-09-09T00:56:26;16.70;99.90
6114;DHT22;3087;48.392;10.836;2022-09-09T00:59:00;16.60;99.90
6114;DHT22;3087;48.392;10.836;2022-09-09T01:01:29;16.50;99.90
6114;DHT22;3087;48.392;10.836;2022-09-09T01:03:56;16.40;99.90
6114;DHT22;3087;48.392;10.836;2022-09-09T01:06:37;16.40;99.90
6114;DHT22;3087;48.392;10.836;2022-09-09T01:09:24;16.40;99.90
6114;DHT22;3087;48.392;10.836;2022-09-09T01:27:53;16.80;99.90
6114;DHT22;3087;48.392;10.836;2022-09-09T01:30:21;16.70;99.90
6114;DHT22;3087;48.392;10.836;2022-09-09T01:32:50;16.70;99.90
6114;DHT22;3087;48.392;10.836;2022-09-09T01:37:57;16.90;99.90
6114;DHT22;3087;48.392;10.836;2022-09-09T01:40:23;16.90;99.90
6114;DHT22;3087;48.392;10.836;2022-09-09T01:42:52;16.80;99.90
6114;DHT22;3087;48.392;10.836;2022-09-09T01:45:19;16.70;99.90
6114;DHT22;3087;48.392;10.836;2022-09-09T01:47:45;16.60;99.90
6114;DHT22;3087;48.392;10.836;2022-09-09T01:50:13;16.50;99.90
6114;DHT22;3087;48.392;10.836;2022-09-09T01:52:40;16.30;99.90
6114;DHT22;3087;48.392;10.836;2022-09-09T01:55:07;16.00;99.90
6114;DHT22;3087;48.392;10.836;2022-09-09T01:57:43;15.90;99.90
6114;DHT22;3087;48.392;10.836;2022-09-09T02:00:13;15.80;99.90
6114;DHT22;3087;48.392;10.836;2022-09-09T02:03:00;15.70;99.90
6114;DHT22;3087;48.392;10.836;2022-09-09T02:05:37;15.90;99.90
6114;DHT22;3087;48.392;10.836;2022-09-09T02:10:59;16.30;99.90
6114;DHT22;3087;48.392;10.836;2022-09-09T02:13:28;16.40;99.90
6114;DHT22;3087;48.392;10.836;2022-09-09T02:16:32;16.20;99.90
6114;DHT22;3087;48.392;10.836;2022-09-09T02:19:10;16.20;99.90
6114;DHT22;3087;48.392;10.836;2022-09-09T02:21:40;16.20;99.90
6114;DHT22;3087;48.392;10.836;2022-09-09T02:24:08;16.20;99.90
6114;DHT22;3087;48.392;10.836;2022-09-09T02:26:40;16.30;99.90
6114;DHT22;3087;48.392;10.836;2022-09-09T02:29:13;16.20;99.90
6114;DHT22;3087;48.392;10.836;2022-09-09T02:31:41;16.00;99.90
6114;DHT22;3087;48.392;10.836;2022-09-09T02:34:09;15.90;99.90
6114;DHT22;3087;48.392;10.836;2022-09-09T02:36:37;15.80;99.90
6114;DHT22;3087;48.392;10.836;2022-09-09T02:39:06;15.70;99.90
6114;DHT22;3087;48.392;10.836;2022-09-09T02:41:38;15.60;99.90
6114;DHT22;3087;48.392;10.836;2022-09-09T02:44:12;15.50;99.90
6114;DHT22;3087;48.392;10.836;2022-09-09T02:54:40;15.30;99.90
6114;DHT22;3087;48.392;10.836;2022-09-09T02:57:17;15.30;99.90
6114;DHT22;3087;48.392;10.836;2022-09-09T02:59:45;15.40;99.90
6114;DHT22;3087;48.392;10.836;2022-09-09T03:02:12;15.50;99.90
6114;DHT22;3087;48.392;10.836;2022-09-09T03:04:38;15.50;99.90
6114;DHT22;3087;48.392;10.836;2022-09-09T03:07:04;15.50;99.90
6114;DHT22;3087;48.392;10.836;2022-09-09T03:09:30;15.50;99.90
6114;DHT22;3087;48.392;10.836;2022-09-09T03:11:56;15.50;99.90
6114;DHT22;3087;48.392;10.836;2022-09-09T03:14:22;15.40;99.90
6114;DHT22;3087;48.392;10.836;2022-09-09T03:16:51;15.40;99.90
6114;DHT22;3087;48.392;10.836;2022-09-09T03:19:17;15.30;99.90
6114;DHT22;3087;48.392;10.836;2022-09-09T03:21:44;15.20;99.90
6114;DHT22;3087;48.392;10.836;2022-09-09T03:24:10;15.20;99.90
6114;DHT22;3087;48.392;10.836;2022-09-09T03:26:36;15.10;99.90
6114;DHT22;3087;48.392;10.836;2022-09-09T03:29:03;15.10;99.90
6114;DHT22;3087;48.392;10.836;2022-09-09T03:31:32;15.00;99.90
6114;DHT22;3087;48.392;10.836;2022-09-09T03:33:58;15.00;99.90
6114;DHT22;3087;48.392;10.836;2022-09-09T03:36:25;15.00;99.90
6114;DHT22;3087;48.392;10.836;2022-09-09T03:38:52;15.00;99.90
6114;DHT22;3087;48.392;10.836;2022-09-09T03:41:18;15.00;99.90
6114;DHT22;3087;48.392;10.836;2022-09-09T03:43:43;15.20;99.90
6114;DHT22;3087;48.392;10.836;2022-09-09T03:46:10;15.40;99.90
6114;DHT22;3087;48.392;10.836;2022-09-09T03:48:35;15.60;99.90
6114;DHT22;3087;48.392;10.836;2022-09-09T03:51:01;15.80;99.90
6114;DHT22;3087;48.392;10.836;2022-09-09T03:53:28;15.90;99.90
6114;DHT22;3087;48.392;10.836;2022-09-09T03:55:56;16.10;99.90
6114;DHT22;3087;48.392;10.836;2022-09-09T03:58:25;16.20;99.90
6114;DHT22;3087;48.392;10.836;2022-09-09T04:01:00;16.10;99.90
6114;DHT22;3087;48.392;10.836;2022-09-09T04:03:26;16.30;99.90
6114;DHT22;3087;48.392;10.836;2022-09-09T04:05:52;16.40;99.90
6114;DHT22;3087;48.392;10.836;2022-09-09T04:08:18;16.40;99.90
6114;DHT22;3087;48.392;10.836;2022-09-09T04:10:48;16.50;99.90
6114;DHT22;3087;48.392;10.836;2022-09-09T04:13:15;16.50;99.90
6114;DHT22;3087;48.392;10.836;2022-09-09T04:15:42;16.40;99.90
6114;DHT22;3087;48.392;10.836;2022-09-09T04:18:09;16.30;99.90
6114;DHT22;3087;48.392;10.836;2022-09-09T04:20:35;16.30;99.90
6114;DHT22;3087;48.392;10.836;2022-09-09T04:23:01;16.10;99.90
6114;DHT22;3087;48.392;10.836;2022-09-09T04:25:26;15.90;99.90
6114;DHT22;3087;48.392;10.836;2022-09-09T04:27:56;15.90;99.90
6114;DHT22;3087;48.392;10.836;2022-09-09T04:30:24;16.00;99.90
6114;DHT22;3087;48.392;10.836;2022-09-09T04:32:50;16.10;99.90
6114;DHT22;3087;48.392;10.836;2022-09-09T04:35:18;16.00;99.90
6114;DHT22;3087;48.392;10.836;2022-09-09T04:37:45;16.00;99.90
6114;DHT22;3087;48.392;10.836;2022-09-09T04:40:11;15.90;99.90
6114;DHT22;3087;48.392;10.836;2022-09-09T04:42:36;15.80;99.90
6114;DHT22;3087;48.392;10.836;2022-09-09T04:45:03;14.40;99.90
6114;DHT22;3087;48.392;10.836;2022-09-09T04:47:28;15.70;99.90
6114;DHT22;3087;48.392;10.836;2022-09-09T04:49:54;15.60;99.90
6114;DHT22;3087;48.392;10.836;2022-09-09T04:52:20;15.50;99.90
6114;DHT22;3087;48.392;10.836;2022-09-09T04:54:46;15.60;99.90
6114;DHT22;3087;48.392;10.836;2022-09-09T04:57:12;15.60;99.90
6114;DHT22;3087;48.392;10.836;2022-09-09T04:59:37;15.70;99.90
6114;DHT22;3087;48.392;10.836;2022-09-09T05:02:05;15.80;99.90
6114;DHT22;3087;48.392;10.836;2022-09-09T05:04:30;15.80;99.90
6114;DHT22;3087;48.392;10.836;2022-09-09T05:06:56;15.70;99.90
6114;DHT22;3087;48.392;10.836;2022-09-09T05:09:22;15.60;99.90
6114;DHT22;3087;48.392;10.836;2022-09-09T05:11:48;15.50;99.90
6114;DHT22;3087;48.392;10.836;2022-09-09T05:14:14;15.50;99.90
6114;DHT22;3087;48.392;10.836;2022-09-09T05:16:40;15.70;99.90
6114;DHT22;3087;48.392;10.836;2022-09-09T05:19:06;15.90;99.90
6114;DHT22;3087;48.392;10.836;2022-09-09T05:21:33;16.20;99.90
6114;DHT22;3087;48.392;10.836;2022-09-09T05:23:59;16.30;99.90
6114;DHT22;3087;48.392;10.836;2022-09-09T05:26:26;16.40;99.90
6114;DHT22;3087;48.392;10.836;2022-09-09T05:28:51;16.40;99.90
6114;DHT22;3087;48.392;10.836;2022-09-09T05:31:18;16.40;99.90
6114;DHT22;3087;48.392;10.836;2022-09-09T05:33:45;16.40;99.90
6114;DHT22;3087;48.392;10.836;2022-09-09T05:36:19;16.50;99.90
6114;DHT22;3087;48.392;10.836;2022-09-09T05:38:45;16.50;99.90
6114;DHT22;3087;48.392;10.836;2022-09-09T05:41:12;16.60;99.90
6114;DHT22;3087;48.392;10.836;2022-09-09T05:43:38;16.60;99.90
6114;DHT22;3087;48.392;10.836;2022-09-09T05:46:12;16.70;99.90
6114;DHT22;3087;48.392;10.836;2022-09-09T05:48:40;16.70;99.90
6114;DHT22;3087;48.392;10.836;2022-09-09T05:51:08;16.80;99.90
6114;DHT22;3087;48.392;10.836;2022-09-09T05:53:35;16.80;99.90
6114;DHT22;3087;48.392;10.836;2022-09-09T05:58:30;16.90;99.90
6114;DHT22;3087;48.392;10.836;2022-09-09T06:03:30;17.10;99.90
6114;DHT22;3087;48.392;10.836;2022-09-09T06:06:01;17.10;99.90
6114;DHT22;3087;48.392;10.836;2022-09-09T06:08:27;17.20;99.90
6114;DHT22;3087;48.392;10.836;2022-09-09T06:10:52;17.20;99.90
6114;DHT22;3087;48.392;10.836;2022-09-09T06:13:18;17.20;99.90
6114;DHT22;3087;48.392;10.836;2022-09-09T06:15:52;17.20;99.90
6114;DHT22;3087;48.392;10.836;2022-09-09T06:18:19;17.20;99.90
6114;DHT22;3087;48.392;10.836;2022-09-09T06:20:58;17.00;99.90
6114;DHT22;3087;48.392;10.836;2022-09-09T06:23:25;17.00;99.90
6114;DHT22;3087;48.392;10.836;2022-09-09T06:25:51;16.90;99.90
6114;DHT22;3087;48.392;10.836;2022-09-09T06:28:17;17.00;99.90
6114;DHT22;3087;48.392;10.836;2022-09-09T06:30:43;17.00;99.90
6114;DHT22;3087;48.392;10.836;2022-09-09T06:33:10;17.00;99.90
6114;DHT22;3087;48.392;10.836;2022-09-09T06:35:35;17.10;99.90
6114;DHT22;3087;48.392;10.836;2022-09-09T06:38:01;17.20;99.90
6114;DHT22;3087;48.392;10.836;2022-09-09T06:40:26;17.30;99.90
6114;DHT22;3087;48.392;10.836;2022-09-09T06:42:52;17.20;99.90
6114;DHT22;3087;48.392;10.836;2022-09-09T06:45:18;17.10;99.90
6114;DHT22;3087;48.392;10.836;2022-09-09T06:47:44;17.00;99.90
6114;DHT22;3087;48.392;10.836;2022-09-09T06:50:10;17.00;99.90
6114;DHT22;3087;48.392;10.836;2022-09-09T06:52:36;17.00;99.90
6114;DHT22;3087;48.392;10.836;2022-09-09T06:55:03;17.00;99.90
6114;DHT22;3087;48.392;10.836;2022-09-09T06:57:29;17.00;99.90
6114;DHT22;3087;48.392;10.836;2022-09-09T06:59:54;17.00;99.90
6114;DHT22;3087;48.392;10.836;2022-09-09T07:02:20;17.00;99.90
6114;DHT22;3087;48.392;10.836;2022-09-09T07:04:46;16.90;99.90
6114;DHT22;3087;48.392;10.836;2022-09-09T07:07:12;17.00;99.90
6114;DHT22;3087;48.392;10.836;2022-09-09T07:09:39;17.00;99.90
6114;DHT22;3087;48.392;10.836;2022-09-09T07:12:06;17.10;99.90
6114;DHT22;3087;48.392;10.836;2022-09-09T07:14:32;17.10;99.90
6114;DHT22;3087;48.392;10.836;2022-09-09T07:16:59;17.10;99.90
6114;DHT22;3087;48.392;10.836;2022-09-09T07:19:25;17.10;99.90
6114;DHT22;3087;48.392;10.836;2022-09-09T07:21:51;17.10;99.90
6114;DHT22;3087;48.392;10.836;2022-09-09T07:24:17;17.10;99.90
6114;DHT22;3087;48.392;10.836;2022-09-09T07:26:42;17.20;99.90
6114;DHT22;3087;48.392;10.836;2022-09-09T07:29:09;17.30;99.90
6114;DHT22;3087;48.392;10.836;2022-09-09T07:31:37;17.40;99.90
6114;DHT22;3087;48.392;10.836;2022-09-09T07:34:03;17.60;99.90
6114;DHT22;3087;48.392;10.836;2022-09-09T07:36:37;17.70;99.90
6114;DHT22;3087;48.392;10.836;2022-09-09T07:39:08;17.80;99.90
6114;DHT22;3087;48.392;10.836;2022-09-09T07:41:39;17.90;99.90
6114;DHT22;3087;48.392;10.836;2022-09-09T07:44:08;18.00;99.90
6114;DHT22;3087;48.392;10.836;2022-09-09T07:46:34;18.00;99.90
6114;DHT22;3087;48.392;10.836;2022-09-09T07:49:00;17.90;99.90
6114;DHT22;3087;48.392;10.836;2022-09-09T07:51:36;17.80;99.90
6114;DHT22;3087;48.392;10.836;2022-09-09T07:54:04;17.80;99.90
6114;DHT22;3087;48.392;10.836;2022-09-09T07:56:31;17.80;99.90
6114;DHT22;3087;48.392;10.836;2022-09-09T07:58:58;17.80;99.90
6114;DHT22;3087;48.392;10.836;2022-09-09T08:01:33;17.90;99.90
6114;DHT22;3087;48.392;10.836;2022-09-09T08:04:01;17.80;99.90
6114;DHT22;3087;48.392;10.836;2022-09-09T08:06:29;17.70;99.90
6114;DHT22;3087;48.392;10.836;2022-09-09T08:08:55;17.70;99.90
6114;DHT22;3087;48.392;10.836;2022-09-09T08:11:23;17.80;99.90
6114;DHT22;3087;48.392;10.836;2022-09-09T08:13:50;17.90;99.90
6114;DHT22;3087;48.392;10.836;2022-09-09T08:16:21;17.90;99.90
6114;DHT22;3087;48.392;10.836;2022-09-09T08:18:48;17.90;99.90
6114;DHT22;3087;48.392;10.836;2022-09-09T08:21:19;17.90;99.90
6114;DHT22;3087;48.392;10.836;2022-09-09T08:23:46;18.00;99.90
6114;DHT22;3087;48.392;10.836;2022-09-09T08:26:17;18.20;99.90
6114;DHT22;3087;48.392;10.836;2022-09-09T08:28:48;18.30;99.90
6114;DHT22;3087;48.392;10.836;2022-09-09T08:31:20;18.40;99.90
6114;DHT22;3087;48.392;10.836;2022-09-09T08:33:46;18.50;99.90
6114;DHT22;3087;48.392;10.836;2022-09-09T08:36:15;18.50;99.90
6114;DHT22;3087;48.392;10.836;2022-09-09T08:38:42;18.50;99.90
6114;DHT22;3087;48.392;10.836;2022-09-09T08:52:19;18.70;99.90
6114;DHT22;3087;48.392;10.836;2022-09-09T08:54:49;18.80;99.90
6114;DHT22;3087;48.392;10.836;2022-09-09T08:57:20;18.80;99.90
6114;DHT22;3087;48.392;10.836;2022-09-09T08:59:47;18.90;99.90
6114;DHT22;3087;48.392;10.836;2022-09-09T09:02:19;18.90;99.90
6114;DHT22;3087;48.392;10.836;2022-09-09T09:12:55;19.10;99.90
6114;DHT22;3087;48.392;10.836;2022-09-09T09:15:27;19.10;99.90
6114;DHT22;3087;48.392;10.836;2022-09-09T09:17:53;19.30;99.90
6114;DHT22;3087;48.392;10.836;2022-09-09T09:20:29;19.50;99.90
6114;DHT22;3087;48.392;10.836;2022-09-09T09:23:00;19.60;99.90
6114;DHT22;3087;48.392;10.836;2022-09-09T09:25:31;19.70;99.90
6114;DHT22;3087;48.392;10.836;2022-09-09T09:30:54;19.80;99.90
6114;DHT22;3087;48.392;10.836;2022-09-09T09:33:49;19.90;99.90
6114;DHT22;3087;48.392;10.836;2022-09-09T09:36:15;19.90;99.90
6114;DHT22;3087;48.392;10.836;2022-09-09T09:38:58;20.00;99.90
6114;DHT22;3087;48.392;10.836;2022-09-09T09:41:36;20.00;99.90
6114;DHT22;3087;48.392;10.836;2022-09-09T09:44:05;20.00;99.90
6114;DHT22;3087;48.392;10.836;2022-09-09T09:46:31;20.00;99.90
6114;DHT22;3087;48.392;10.836;2022-09-09T09:48:58;20.00;99.90
6114;DHT22;3087;48.392;10.836;2022-09-09T09:51:26;20.00;99.90
6114;DHT22;3087;48.392;10.836;2022-09-09T09:53:53;20.10;99.90
6114;DHT22;3087;48.392;10.836;2022-09-09T09:56:27;20.10;99.90
6114;DHT22;3087;48.392;10.836;2022-09-09T09:58:55;20.30;99.90
6114;DHT22;3087;48.392;10.836;2022-09-09T10:01:38;20.40;99.90
6114;DHT22;3087;48.392;10.836;2022-09-09T10:06:38;20.50;99.90
6114;DHT22;3087;48.392;10.836;2022-09-09T10:09:31;20.50;99.90
6114;DHT22;3087;48.392;10.836;2022-09-09T10:12:43;20.60;99.90
6114;DHT22;3087;48.392;10.836;2022-09-09T10:31:36;21.10;99.90
6114;DHT22;3087;48.392;10.836;2022-09-09T10:37:07;21.10;99.90
6114;DHT22;3087;48.392;10.836;2022-09-09T10:39:39;21.10;99.90
6114;DHT22;3087;48.392;10.836;2022-09-09T10:42:14;21.10;99.90
6114;DHT22;3087;48.392;10.836;2022-09-09T10:47:35;21.00;99.90
6114;DHT22;3087;48.392;10.836;2022-09-09T10:52:59;20.90;99.90
6114;DHT22;3087;48.392;10.836;2022-09-09T10:55:41;20.80;99.90
6114;DHT22;3087;48.392;10.836;2022-09-09T11:01:25;20.70;99.90
6114;DHT22;3087;48.392;10.836;2022-09-09T11:04:00;20.70;99.90
6114;DHT22;3087;48.392;10.836;2022-09-09T11:06:34;20.70;99.90
6114;DHT22;3087;48.392;10.836;2022-09-09T11:09:02;20.70;99.90
6114;DHT22;3087;48.392;10.836;2022-09-09T11:14:18;20.80;99.90
6114;DHT22;3087;48.392;10.836;2022-09-09T11:16:50;20.80;99.90
6114;DHT22;3087;48.392;10.836;2022-09-09T11:21:53;21.00;99.90
6114;DHT22;3087;48.392;10.836;2022-09-09T11:27:15;21.20;99.90
6114;DHT22;3087;48.392;10.836;2022-09-09T11:29:50;21.20;99.90
6114;DHT22;3087;48.392;10.836;2022-09-09T11:38:25;21.00;99.90
6114;DHT22;3087;48.392;10.836;2022-09-09T11:41:00;20.90;99.90
6114;DHT22;3087;48.392;10.836;2022-09-09T11:43:50;20.90;99.90
6114;DHT22;3087;48.392;10.836;2022-09-09T11:46:19;20.90;99.90
6114;DHT22;3087;48.392;10.836;2022-09-09T11:48:58;20.80;99.90
6114;DHT22;3087;48.392;10.836;2022-09-09T11:51:27;20.90;99.90
6114;DHT22;3087;48.392;10.836;2022-09-09T11:53:56;20.90;99.90
6114;DHT22;3087;48.392;10.836;2022-09-09T11:56:41;21.00;99.90
6114;DHT22;3087;48.392;10.836;2022-09-09T11:59:24;21.20;99.90
6114;DHT22;3087;48.392;10.836;2022-09-09T12:02:13;21.30;99.90
6114;DHT22;3087;48.392;10.836;2022-09-09T12:05:03;21.50;99.90
6114;DHT22;3087;48.392;10.836;2022-09-09T12:07:49;21.80;99.90
6114;DHT22;3087;48.392;10.836;2022-09-09T12:10:28;22.30;99.90
6114;DHT22;3087;48.392;10.836;2022-09-09T12:12:55;22.40;99.90
6114;DHT22;3087;48.392;10.836;2022-09-09T12:15:27;22.40;99.90
6114;DHT22;3087;48.392;10.836;2022-09-09T12:17:56;22.40;99.90
6114;DHT22;3087;48.392;10.836;2022-09-09T12:20:36;22.20;99.90
6114;DHT22;3087;48.392;10.836;2022-09-09T12:23:41;21.90;99.90
6114;DHT22;3087;48.392;10.836;2022-09-09T12:32:16;21.60;99.90
6114;DHT22;3087;48.392;10.836;2022-09-09T12:34:54;21.50;99.90
6114;DHT22;3087;48.392;10.836;2022-09-09T12:37:34;21.30;99.90
6114;DHT22;3087;48.392;10.836;2022-09-09T12:40:03;21.20;99.90
6114;DHT22;3087;48.392;10.836;2022-09-09T12:42:29;21.20;99.90
6114;DHT22;3087;48.392;10.836;2022-09-09T12:45:00;21.10;99.90
6114;DHT22;3087;48.392;10.836;2022-09-09T12:49:56;20.90;99.90
6114;DHT22;3087;48.392;10.836;2022-09-09T12:52:49;20.90;99.90
6114;DHT22;3087;48.392;10.836;2022-09-09T12:55:30;21.00;99.90
6114;DHT22;3087;48.392;10.836;2022-09-09T12:57:59;21.20;99.90
6114;DHT22;3087;48.392;10.836;2022-09-09T13:00:26;21.20;99.90
6114;DHT22;3087;48.392;10.836;2022-09-09T13:02:58;21.30;99.90
6114;DHT22;3087;48.392;10.836;2022-09-09T13:05:35;21.30;99.90
6114;DHT22;3087;48.392;10.836;2022-09-09T13:08:06;21.50;99.90
6114;DHT22;3087;48.392;10.836;2022-09-09T13:10:36;21.80;99.90
6114;DHT22;3087;48.392;10.836;2022-09-09T13:13:05;22.00;99.90
6114;DHT22;3087;48.392;10.836;2022-09-09T13:15:38;22.30;99.90
6114;DHT22;3087;48.392;10.836;2022-09-09T13:18:07;22.40;99.90
6114;DHT22;3087;48.392;10.836;2022-09-09T13:20:37;22.40;99.90
6114;DHT22;3087;48.392;10.836;2022-09-09T13:23:03;22.30;99.90
6114;DHT22;3087;48.392;10.836;2022-09-09T13:25:29;22.40;99.90
6114;DHT22;3087;48.392;10.836;2022-09-09T13:28:03;22.80;99.90
6114;DHT22;3087;48.392;10.836;2022-09-09T13:30:30;23.10;99.90
6114;DHT22;3087;48.392;10.836;2022-09-09T13:33:22;23.20;99.90
6114;DHT22;3087;48.392;10.836;2022-09-09T13:35:56;23.10;99.90
6114;DHT22;3087;48.392;10.836;2022-09-09T13:38:23;22.90;99.90
6114;DHT22;3087;48.392;10.836;2022-09-09T13:41:02;22.80;99.90
6114;DHT22;3087;48.392;10.836;2022-09-09T13:43:44;22.60;99.90
6114;DHT22;3087;48.392;10.836;2022-09-09T13:48:55;21.70;99.90
6114;DHT22;3087;48.392;10.836;2022-09-09T13:51:37;21.50;99.90
6114;DHT22;3087;48.392;10.836;2022-09-09T13:54:08;21.30;99.90
6114;DHT22;3087;48.392;10.836;2022-09-09T13:56:35;21.10;99.90
6114;DHT22;3087;48.392;10.836;2022-09-09T13:59:02;21.00;99.90
6114;DHT22;3087;48.392;10.836;2022-09-09T14:01:27;21.00;99.90
6114;DHT22;3087;48.392;10.836;2022-09-09T14:03:54;20.90;99.90
6114;DHT22;3087;48.392;10.836;2022-09-09T14:06:19;20.70;99.90
6114;DHT22;3087;48.392;10.836;2022-09-09T14:08:48;20.10;99.90
6114;DHT22;3087;48.392;10.836;2022-09-09T14:11:14;19.40;99.90
6114;DHT22;3087;48.392;10.836;2022-09-09T14:13:40;19.20;99.90
6114;DHT22;3087;48.392;10.836;2022-09-09T14:16:05;19.10;99.90
6114;DHT22;3087;48.392;10.836;2022-09-09T14:18:31;18.90;99.90
6114;DHT22;3087;48.392;10.836;2022-09-09T14:20:57;18.50;99.90
6114;DHT22;3087;48.392;10.836;2022-09-09T14:23:24;18.30;99.90
6114;DHT22;3087;48.392;10.836;2022-09-09T14:25:50;18.20;99.90
6114;DHT22;3087;48.392;10.836;2022-09-09T14:28:16;18.20;99.90
6114;DHT22;3087;48.392;10.836;2022-09-09T14:30:43;18.10;99.90
6114;DHT22;3087;48.392;10.836;2022-09-09T14:33:11;18.10;99.90
6114;DHT22;3087;48.392;10.836;2022-09-09T14:35:38;18.20;99.90
6114;DHT22;3087;48.392;10.836;2022-09-09T14:38:04;18.20;99.90
6114;DHT22;3087;48.392;10.836;2022-09-09T14:40:31;18.20;99.90
6114;DHT22;3087;48.392;10.836;2022-09-09T14:42:57;18.20;99.90
6114;DHT22;3087;48.392;10.836;2022-09-09T14:45:24;18.20;99.90
6114;DHT22;3087;48.392;10.836;2022-09-09T14:47:50;18.10;99.90
6114;DHT22;3087;48.392;10.836;2022-09-09T14:50:17;18.20;99.90
6114;DHT22;3087;48.392;10.836;2022-09-09T14:52:43;18.20;99.90
6114;DHT22;3087;48.392;10.836;2022-09-09T14:55:09;18.20;99.90
6114;DHT22;3087;48.392;10.836;2022-09-09T14:57:34;18.20;99.90
6114;DHT22;3087;48.392;10.836;2022-09-09T15:00:02;18.10;99.90
6114;DHT22;3087;48.392;10.836;2022-09-09T15:02:29;18.30;99.90
6114;DHT22;3087;48.392;10.836;2022-09-09T15:04:55;18.40;99.90
6114;DHT22;3087;48.392;10.836;2022-09-09T15:07:24;18.50;99.90
6114;DHT22;3087;48.392;10.836;2022-09-09T15:09:49;18.60;99.90
6114;DHT22;3087;48.392;10.836;2022-09-09T15:12:15;18.70;99.90
6114;DHT22;3087;48.392;10.836;2022-09-09T15:14:41;18.80;99.90
6114;DHT22;3087;48.392;10.836;2022-09-09T15:17:06;18.80;99.90
6114;DHT22;3087;48.392;10.836;2022-09-09T15:19:32;18.80;99.90
6114;DHT22;3087;48.392;10.836;2022-09-09T15:21:58;18.80;99.90
6114;DHT22;3087;48.392;10.836;2022-09-09T15:24:25;18.80;99.90
6114;DHT22;3087;48.392;10.836;2022-09-09T15:26:51;18.90;99.90
6114;DHT22;3087;48.392;10.836;2022-09-09T15:29:17;18.90;99.90
6114;DHT22;3087;48.392;10.836;2022-09-09T15:31:44;19.00;99.90
6114;DHT22;3087;48.392;10.836;2022-09-09T15:34:09;19.10;99.90
6114;DHT22;3087;48.392;10.836;2022-09-09T15:36:40;19.20;99.90
6114;DHT22;3087;48.392;10.836;2022-09-09T15:39:08;19.30;99.90
6114;DHT22;3087;48.392;10.836;2022-09-09T15:41:37;19.40;99.90
6114;DHT22;3087;48.392;10.836;2022-09-09T15:44:03;19.50;99.90
6114;DHT22;3087;48.392;10.836;2022-09-09T15:46:34;19.60;99.90
6114;DHT22;3087;48.392;10.836;2022-09-09T15:49:11;19.70;99.90
6114;DHT22;3087;48.392;10.836;2022-09-09T15:51:42;19.80;99.90
6114;DHT22;3087;48.392;10.836;2022-09-09T15:54:27;20.00;99.90
6114;DHT22;3087;48.392;10.836;2022-09-09T15:56:55;20.10;99.90
6114;DHT22;3087;48.392;10.836;2022-09-09T15:59:25;20.20;99.90
6114;DHT22;3087;48.392;10.836;2022-09-09T16:01:51;20.40;99.90
6114;DHT22;3087;48.392;10.836;2022-09-09T16:04:21;20.60;99.90
6114;DHT22;3087;48.392;10.836;2022-09-09T16:06:52;20.70;99.90
6114;DHT22;3087;48.392;10.836;2022-09-09T16:09:18;20.80;99.90
6114;DHT22;3087;48.392;10.836;2022-09-09T16:11:43;20.80;99.90
6114;DHT22;3087;48.392;10.836;2022-09-09T16:14:09;20.70;99.90
6114;DHT22;3087;48.392;10.836;2022-09-09T16:16:36;20.70;99.90
6114;DHT22;3087;48.392;10.836;2022-09-09T16:19:07;20.60;99.90
6114;DHT22;3087;48.392;10.836;2022-09-09T16:21:40;20.50;99.90
6114;DHT22;3087;48.392;10.836;2022-09-09T16:24:08;20.40;99.90
6114;DHT22;3087;48.392;10.836;2022-09-09T16:26:36;20.30;99.90
6114;DHT22;3087;48.392;10.836;2022-09-09T16:29:03;20.30;99.90
6114;DHT22;3087;48.392;10.836;2022-09-09T16:31:29;20.20;99.90
6114;DHT22;3087;48.392;10.836;2022-09-09T16:33:56;20.20;99.90
6114;DHT22;3087;48.392;10.836;2022-09-09T16:36:27;20.20;99.90
6114;DHT22;3087;48.392;10.836;2022-09-09T16:38:54;23.20;99.90
6114;DHT22;3087;48.392;10.836;2022-09-09T16:41:20;20.10;99.90
6114;DHT22;3087;48.392;10.836;2022-09-09T16:43:46;20.10;99.90
6114;DHT22;3087;48.392;10.836;2022-09-09T16:46:18;20.20;99.90
6114;DHT22;3087;48.392;10.836;2022-09-09T16:48:46;20.20;99.90
6114;DHT22;3087;48.392;10.836;2022-09-09T16:51:15;20.20;99.90
6114;DHT22;3087;48.392;10.836;2022-09-09T16:53:41;20.30;99.90
6114;DHT22;3087;48.392;10.836;2022-09-09T16:56:12;20.40;99.90
6114;DHT22;3087;48.392;10.836;2022-09-09T16:58:39;20.60;99.90
6114;DHT22;3087;48.392;10.836;2022-09-09T17:01:05;20.70;99.90
6114;DHT22;3087;48.392;10.836;2022-09-09T17:03:32;20.80;99.90
6114;DHT22;3087;48.392;10.836;2022-09-09T17:05:58;20.80;99.90
6114;DHT22;3087;48.392;10.836;2022-09-09T17:08:28;20.90;99.90
6114;DHT22;3087;48.392;10.836;2022-09-09T17:10:54;20.90;99.90
6114;DHT22;3087;48.392;10.836;2022-09-09T17:13:20;20.90;99.90
6114;DHT22;3087;48.392;10.836;2022-09-09T17:15:46;20.90;99.90
6114;DHT22;3087;48.392;10.836;2022-09-09T17:18:12;21.00;99.90
6114;DHT22;3087;48.392;10.836;2022-09-09T17:20:39;20.90;99.90
6114;DHT22;3087;48.392;10.836;2022-09-09T17:23:09;20.90;99.90
6114;DHT22;3087;48.392;10.836;2022-09-09T17:25:36;20.90;99.90
6114;DHT22;3087;48.392;10.836;2022-09-09T17:28:02;21.00;99.90
6114;DHT22;3087;48.392;10.836;2022-09-09T17:30:35;20.90;99.90
6114;DHT22;3087;48.392;10.836;2022-09-09T17:33:03;20.90;99.90
6114;DHT22;3087;48.392;10.836;2022-09-09T17:35:29;20.80;99.90
6114;DHT22;3087;48.392;10.836;2022-09-09T17:37:55;20.80;99.90
6114;DHT22;3087;48.392;10.836;2022-09-09T17:40:21;20.80;99.90
6114;DHT22;3087;48.392;10.836;2022-09-09T17:42:47;20.90;99.90
6114;DHT22;3087;48.392;10.836;2022-09-09T17:45:13;20.90;99.90
6114;DHT22;3087;48.392;10.836;2022-09-09T17:47:39;20.90;99.90
6114;DHT22;3087;48.392;10.836;2022-09-09T17:50:05;20.90;99.90
6114;DHT22;3087;48.392;10.836;2022-09-09T17:52:32;20.90;99.90
6114;DHT22;3087;48.392;10.836;2022-09-09T17:54:57;20.90;99.90
6114;DHT22;3087;48.392;10.836;2022-09-09T17:57:23;20.80;99.90
6114;DHT22;3087;48.392;10.836;2022-09-09T17:59:50;20.60;99.90